Time;durP1;ratioP1;P1;durP2;ratioP2;P2;SDS_P1;SDS_P2;PMS_P1;PMS_P2;Temp;Humidity;BMP_temperature;BMP_pressure;BME280_temperature;BME280_humidity;BME280_pressure;Samples;Min_cycle;Max_cycle;Signal;HPM_P1;HPM_P2
2023/07/22 00:01:23;;;;;;;5.40;3.10;;;;;;;17.56;66.13;99283.17;107321;1256;60642;-38
2023/07/22 00:03:51;;;;;;;3.80;2.60;;;;;;;17.50;66.11;99283.06;107306;1255;60304;-38
2023/07/22 00:06:20;;;;;;;4.60;2.40;;;;;;;17.49;66.04;99281.42;107362;1256;73828;-38
2023/07/22 00:08:49;;;;;;;5.40;2.60;;;;;;;17.51;65.91;99275.07;107340;1256;67909;-38
2023/07/22 00:11:16;;;;;;;4.50;2.90;;;;;;;17.50;65.57;99262.63;107352;1256;72521;-38
2023/07/22 00:13:44;;;;;;;2.90;2.30;;;;;;;17.49;65.47;99261.55;107320;1253;60404;-38
2023/07/22 00:16:11;;;;;;;6.10;3.20;;;;;;;17.48;65.67;99257.16;107390;1253;60504;-38
2023/07/22 00:18:39;;;;;;;3.60;2.90;;;;;;;17.48;65.83;99254.89;107578;1253;73860;-38
2023/07/22 00:21:08;;;;;;;6.90;3.40;;;;;;;17.47;65.71;99259.20;107406;1258;66618;-38
2023/07/22 00:23:36;;;;;;;4.70;3.10;;;;;;;17.47;65.72;99260.85;107522;1258;72686;-38
2023/07/22 00:26:04;;;;;;;4.00;2.90;;;;;;;17.49;65.82;99254.56;107255;1258;61750;-38
2023/07/22 00:28:31;;;;;;;9.10;3.50;;;;;;;17.55;65.91;99255.05;107563;1253;60368;-38
2023/07/22 00:31:00;;;;;;;5.00;3.00;;;;;;;17.59;66.06;99251.50;107294;1258;72683;-38
2023/07/22 00:33:28;;;;;;;3.30;3.00;;;;;;;17.61;66.07;99243.81;107278;1253;67774;-38
2023/07/22 00:35:56;;;;;;;3.60;3.10;;;;;;;17.63;65.83;99243.17;107482;1253;71454;-38
2023/07/22 00:38:24;;;;;;;4.20;3.60;;;;;;;17.64;65.51;99240.64;107379;1258;60415;-38
2023/07/22 00:40:51;;;;;;;3.80;3.20;;;;;;;17.64;65.29;99235.94;107622;1253;60415;-38
2023/07/22 00:43:19;;;;;;;4.30;3.20;;;;;;;17.64;65.57;99235.16;107337;1253;72553;-38
2023/07/22 00:45:47;;;;;;;5.00;3.10;;;;;;;17.63;65.53;99228.36;107390;1253;66783;-38
2023/07/22 00:48:14;;;;;;;3.60;2.70;;;;;;;17.66;65.49;99234.67;107350;1256;71388;-39
2023/07/22 00:50:42;;;;;;;3.90;2.70;;;;;;;17.69;65.66;99238.61;107150;1261;60416;-38
2023/07/22 00:53:10;;;;;;;4.10;2.90;;;;;;;17.72;65.22;99241.41;107368;1253;60419;-38
2023/07/22 00:55:39;;;;;;;4.20;3.00;;;;;;;17.76;65.01;99235.72;107534;1253;73874;-38
2023/07/22 00:58:06;;;;;;;4.10;3.10;;;;;;;17.79;64.77;99233.73;107626;1254;67575;-38
2023/07/22 01:00:34;;;;;;;5.70;2.60;;;;;;;17.80;64.54;99231.30;107577;1253;72644;-38
2023/07/22 01:03:02;;;;;;;3.40;2.90;;;;;;;17.81;64.54;99233.63;107536;1259;60374;-38
2023/07/22 01:05:30;;;;;;;3.80;2.80;;;;;;;17.80;64.57;99231.98;107366;1258;60037;-38
2023/07/22 01:07:57;;;;;;;4.50;3.10;;;;;;;17.80;64.25;99232.85;107558;1253;73854;-38
2023/07/22 01:10:25;;;;;;;4.10;2.50;;;;;;;17.79;64.34;99229.80;107604;1253;67590;-38
2023/07/22 01:12:53;;;;;;;4.30;3.00;;;;;;;17.83;64.23;99231.09;107399;1253;71060;-38
2023/07/22 01:15:20;;;;;;;3.60;2.80;;;;;;;17.88;64.13;99233.30;107389;1253;60427;-38
2023/07/22 01:17:48;;;;;;;4.50;2.80;;;;;;;17.89;64.12;99233.76;107360;1253;60454;-38
2023/07/22 01:20:16;;;;;;;4.40;3.00;;;;;;;17.89;64.02;99231.02;107361;1260;72583;-38
2023/07/22 01:22:53;;;;;;;5.50;3.00;;;;;;;17.89;63.94;99235.25;107340;1260;66375;-38
2023/07/22 01:25:24;;;;;;;4.90;3.10;;;;;;;17.89;63.69;99233.92;107561;1253;71111;-37
2023/07/22 01:27:53;;;;;;;4.10;3.20;;;;;;;17.88;63.71;99233.30;107412;1253;60288;-38
2023/07/22 01:30:21;;;;;;;4.00;3.00;;;;;;;17.87;63.61;99232.15;107589;1253;60422;-38
2023/07/22 01:32:50;;;;;;;5.10;3.20;;;;;;;17.85;63.51;99233.59;107490;1253;73846;-38
2023/07/22 01:35:19;;;;;;;5.00;3.20;;;;;;;17.81;63.64;99227.34;107460;1253;67887;-38
2023/07/22 01:37:46;;;;;;;8.30;3.00;;;;;;;17.76;63.75;99225.70;107560;1253;71120;-38
2023/07/22 01:40:14;;;;;;;5.30;2.70;;;;;;;17.80;63.75;99227.14;107351;1255;60548;-38
2023/07/22 01:42:42;;;;;;;3.70;2.70;;;;;;;17.82;63.79;99226.80;107591;1259;60287;-37
2023/07/22 01:45:10;;;;;;;5.20;3.10;;;;;;;17.83;63.77;99231.09;107730;1253;73891;-38
2023/07/22 01:47:38;;;;;;;4.40;2.60;;;;;;;17.82;63.74;99229.45;107429;1253;67912;-37
2023/07/22 01:50:07;;;;;;;4.10;2.90;;;;;;;17.81;63.77;99226.95;107543;1253;72713;-37
2023/07/22 01:52:34;;;;;;;4.10;2.90;;;;;;;17.80;63.78;99226.98;107460;1254;60425;-38
2023/07/22 01:55:05;;;;;;;4.00;3.10;;;;;;;17.78;63.65;99230.05;107324;1256;60071;-38
2023/07/22 01:57:33;;;;;;;4.90;3.00;;;;;;;17.77;63.69;99229.91;107332;1256;72572;-37
2023/07/22 02:00:01;;;;;;;6.10;3.10;;;;;;;17.75;63.75;99231.20;107391;1253;65480;-37
2023/07/22 02:02:39;;;;;;;4.90;3.10;;;;;;;17.73;63.70;99223.54;107306;1256;71424;-37
2023/07/22 02:05:09;;;;;;;3.70;2.90;;;;;;;17.73;63.82;99222.04;107336;1253;60423;-37
2023/07/22 02:07:38;;;;;;;4.60;3.20;;;;;;;17.77;63.92;99227.40;107300;1258;60419;-37
2023/07/22 02:10:08;;;;;;;3.30;2.70;;;;;;;17.80;64.07;99232.38;107376;1259;72686;-38
2023/07/22 02:12:35;;;;;;;4.70;2.90;;;;;;;17.81;64.08;99236.83;107556;1253;67684;-38
2023/07/22 02:15:04;;;;;;;5.80;3.00;;;;;;;17.82;64.32;99238.38;107546;1257;71430;-38
2023/07/22 02:17:31;;;;;;;5.20;3.20;;;;;;;17.83;64.17;99237.44;107338;1258;60415;-38
2023/07/22 02:19:59;;;;;;;4.50;3.20;;;;;;;17.84;63.87;99241.98;107296;1253;60313;-38
2023/07/22 02:22:27;;;;;;;4.40;3.20;;;;;;;17.84;63.79;99244.64;107347;1254;73898;-38
2023/07/22 02:24:54;;;;;;;4.30;3.00;;;;;;;17.83;63.86;99245.81;107561;1253;66461;-38
2023/07/22 02:27:22;;;;;;;6.10;3.40;;;;;;;17.84;63.83;99243.39;107559;1253;71704;-38
2023/07/22 02:29:49;;;;;;;5.30;3.40;;;;;;;17.87;63.76;99248.91;107538;1257;61888;-38
2023/07/22 02:32:17;;;;;;;4.70;3.20;;;;;;;17.93;63.91;99247.75;107369;1253;60300;-38
2023/07/22 02:34:44;;;;;;;6.10;3.50;;;;;;;17.97;63.84;99252.94;107341;1254;73889;-38
2023/07/22 02:37:12;;;;;;;6.30;3.70;;;;;;;17.99;63.70;99251.11;107294;1253;66635;-38
2023/07/22 02:39:40;;;;;;;4.30;3.60;;;;;;;18.01;63.71;99249.98;107197;1254;71074;-38
2023/07/22 02:42:08;;;;;;;6.40;4.10;;;;;;;18.03;63.83;99250.11;107276;1253;60565;-38
2023/07/22 02:44:36;;;;;;;6.10;4.10;;;;;;;18.04;63.66;99247.36;107419;1253;60316;-38
2023/07/22 02:47:05;;;;;;;6.20;4.10;;;;;;;18.04;63.58;99246.50;107331;1253;72645;-37
2023/07/22 02:49:33;;;;;;;6.40;4.20;;;;;;;18.03;63.69;99245.65;107222;1253;67627;-38
2023/07/22 02:52:01;;;;;;;5.60;4.20;;;;;;;18.02;63.83;99238.92;107321;1256;70887;-38
2023/07/22 02:54:28;;;;;;;6.00;3.90;;;;;;;18.04;63.97;99238.10;107232;1253;61853;-38
2023/07/22 02:56:56;;;;;;;6.50;4.40;;;;;;;18.10;63.80;99235.52;107357;1253;60404;-38
2023/07/22 02:59:24;;;;;;;6.10;3.70;;;;;;;18.13;63.81;99230.77;107375;1255;72532;-38
2023/07/22 03:01:52;;;;;;;6.70;4.20;;;;;;;18.15;63.75;99231.38;107379;1253;65756;-38
2023/07/22 03:04:19;;;;;;;6.70;4.00;;;;;;;18.16;63.86;99224.92;107376;1259;72717;-38
2023/07/22 03:06:47;;;;;;;9.40;4.10;;;;;;;18.18;63.85;99220.20;107367;1256;60540;-37
2023/07/22 03:09:14;;;;;;;7.40;4.30;;;;;;;18.19;63.73;99218.15;107274;1260;60338;-37
2023/07/22 03:11:42;;;;;;;8.20;4.30;;;;;;;18.18;63.78;99211.90;107347;1255;73833;-37
2023/07/22 03:14:09;;;;;;;4.70;3.70;;;;;;;18.18;63.97;99212.68;107401;1259;67737;-37
2023/07/22 03:16:37;;;;;;;6.40;4.10;;;;;;;18.19;64.03;99204.98;107294;1256;71546;-38
2023/07/22 03:19:05;;;;;;;7.30;3.70;;;;;;;18.25;64.06;99200.42;107178;1261;60437;-38
2023/07/22 03:21:33;;;;;;;5.20;3.40;;;;;;;18.30;64.01;99207.95;107376;1254;60392;-38
2023/07/22 03:24:01;;;;;;;7.50;4.00;;;;;;;18.33;64.15;99204.54;107463;1253;71711;-38
2023/07/22 03:26:28;;;;;;;6.80;4.40;;;;;;;18.37;64.15;99204.27;107365;1254;66415;-39
2023/07/22 03:28:56;;;;;;;6.20;4.20;;;;;;;18.39;64.24;99202.16;107350;1257;73180;-38
2023/07/22 03:31:24;;;;;;;7.90;4.20;;;;;;;18.42;64.16;99205.10;107182;1257;60536;-38
2023/07/22 03:36:51;;;;;;;5.70;4.10;;;;;;;18.44;64.27;99202.25;104160;1294;601037;-37
2023/07/22 03:39:19;;;;;;;10.50;3.60;;;;;;;18.47;64.20;99206.05;106485;1266;60403;-37
2023/07/22 03:41:47;;;;;;;8.60;3.80;;;;;;;18.55;64.14;99202.80;106574;1264;60097;-37
2023/07/22 03:44:15;;;;;;;6.20;3.60;;;;;;;18.61;64.13;99201.48;106577;1267;72259;-38
2023/07/22 03:46:42;;;;;;;5.40;3.60;;;;;;;18.65;64.20;99196.23;106654;1264;65961;-38
2023/07/22 03:49:10;;;;;;;5.30;3.50;;;;;;;18.69;64.13;99195.53;106712;1266;72527;-37
2023/07/22 03:51:37;;;;;;;6.00;4.00;;;;;;;18.74;63.92;99196.70;106605;1263;184351;-38
2023/07/22 03:54:04;;;;;;;4.70;3.50;;;;;;;18.78;63.74;99195.85;106866;1263;60014;-38
2023/07/22 03:56:32;;;;;;;4.50;3.30;;;;;;;18.80;63.84;99195.17;106836;1263;72280;-38
2023/07/22 03:59:00;;;;;;;5.80;3.70;;;;;;;18.82;63.80;99195.40;106766;1267;66286;-38
2023/07/22 04:01:27;;;;;;;7.70;3.30;;;;;;;18.87;63.89;99196.71;106733;1267;72642;-38
2023/07/22 04:03:55;;;;;;;4.50;3.50;;;;;;;18.93;63.79;99192.13;106701;1262;60110;-38
2023/07/22 04:06:22;;;;;;;4.70;3.20;;;;;;;18.98;63.72;99190.48;106815;1263;59516;-38
2023/07/22 04:08:51;;;;;;;7.30;3.70;;;;;;;19.01;63.86;99192.84;106868;1263;73050;-38
2023/07/22 04:11:18;;;;;;;4.90;3.60;;;;;;;19.04;63.77;99194.14;106798;1263;67590;-38
2023/07/22 04:13:46;;;;;;;5.50;3.50;;;;;;;19.05;63.81;99193.31;106865;1263;72668;-38
2023/07/22 04:16:14;;;;;;;4.20;3.30;;;;;;;19.08;63.83;99193.75;106752;1263;60132;-38
2023/07/22 04:18:41;;;;;;;5.50;3.90;;;;;;;19.10;64.02;99197.64;106817;1263;59570;-38
2023/07/22 04:21:09;;;;;;;5.10;3.30;;;;;;;19.12;64.13;99197.91;106727;1263;73123;-37
2023/07/22 04:23:37;;;;;;;5.70;3.60;;;;;;;19.17;63.92;99199.86;106716;1263;66605;-37
2023/07/22 04:26:07;;;;;;;5.00;3.10;;;;;;;19.25;63.70;99201.21;106857;1263;70554;-38
2023/07/22 04:28:35;;;;;;;5.60;3.40;;;;;;;19.30;63.50;99196.88;106875;1263;60148;-37
2023/07/22 04:31:03;;;;;;;4.70;3.50;;;;;;;19.32;63.17;99196.60;106863;1262;60224;-38
2023/07/22 04:33:34;;;;;;;5.60;3.40;;;;;;;19.34;63.02;99196.48;106834;1264;72438;-38
2023/07/22 04:36:02;;;;;;;4.50;3.50;;;;;;;19.36;62.88;99193.37;106851;1262;66364;-37
2023/07/22 04:38:29;;;;;;;5.60;3.80;;;;;;;19.38;62.66;99193.73;106717;1269;71388;-38
2023/07/22 04:40:57;;;;;;;6.20;3.80;;;;;;;19.38;62.63;99197.20;106708;1263;59617;-38
2023/07/22 04:43:24;;;;;;;5.20;3.50;;;;;;;19.40;62.50;99200.30;106758;1266;59591;-38
2023/07/22 04:45:52;;;;;;;5.80;3.30;;;;;;;19.41;62.30;99199.10;106696;1263;73029;-39
2023/07/22 04:48:20;;;;;;;7.50;2.90;;;;;;;19.41;62.44;99197.21;106846;1263;67563;-39
2023/07/22 04:50:48;;;;;;;4.60;3.20;;;;;;;19.45;62.09;99197.08;106758;1264;72758;-39
2023/07/22 04:53:17;;;;;;;4.20;2.90;;;;;;;19.51;62.38;99198.61;106818;1263;59930;-39
2023/07/22 04:55:44;;;;;;;3.70;3.00;;;;;;;19.55;62.45;99196.02;106887;1263;60018;-39
2023/07/22 04:58:12;;;;;;;4.50;3.10;;;;;;;19.59;62.21;99197.91;106769;1263;70850;-39
2023/07/22 05:00:39;;;;;;;5.00;3.00;;;;;;;19.59;61.97;99192.41;106926;1263;68083;-39
2023/07/22 05:03:07;;;;;;;3.00;2.70;;;;;;;19.59;61.97;99183.61;106868;1260;72683;-39
2023/07/22 05:05:36;;;;;;;3.30;2.70;;;;;;;19.57;61.89;99179.56;106931;1260;60107;-40
2023/07/22 05:08:04;;;;;;;3.80;3.00;;;;;;;19.52;61.99;99171.88;107020;1260;61196;-40
2023/07/22 05:10:31;;;;;;;3.70;2.80;;;;;;;19.49;62.33;99167.86;107056;1259;71747;-40
2023/07/22 05:12:59;;;;;;;3.60;2.50;;;;;;;19.48;62.64;99169.69;106978;1264;67575;-40
2023/07/22 05:15:26;;;;;;;5.70;2.70;;;;;;;19.47;62.30;99168.28;106989;1260;72745;-40
2023/07/22 05:17:54;;;;;;;5.40;2.80;;;;;;;19.45;62.10;99163.38;107000;1260;59650;-40
2023/07/22 05:20:21;;;;;;;3.60;2.80;;;;;;;19.39;62.43;99168.66;107032;1260;59999;-40
2023/07/22 05:22:49;;;;;;;7.50;2.70;;;;;;;19.37;62.90;99166.20;106966;1260;73072;-39
2023/07/22 05:25:17;;;;;;;5.60;2.70;;;;;;;19.35;63.08;99159.01;106950;1260;66379;-40
2023/07/22 05:27:45;;;;;;;4.80;2.70;;;;;;;19.32;63.31;99160.23;107230;1255;72648;-40
2023/07/22 05:30:12;;;;;;;3.70;2.50;;;;;;;19.33;63.55;99160.21;107083;1260;59431;-40
2023/07/22 05:32:59;;;;;;;6.30;2.20;;;;;;;19.36;63.97;99167.38;107203;1256;60547;-40
2023/07/22 05:35:27;;;;;;;3.10;2.20;;;;;;;19.39;64.34;99174.08;107269;1256;73054;-40
2023/07/22 05:37:55;;;;;;;3.30;2.60;;;;;;;19.42;64.68;99183.39;107279;1256;67933;-40
2023/07/22 05:40:22;;;;;;;5.20;2.30;;;;;;;19.42;65.34;99187.61;107302;1260;71110;-40
2023/07/22 05:42:50;;;;;;;6.50;2.90;;;;;;;19.38;65.59;99189.33;107196;1256;59625;-40
2023/07/22 05:45:18;;;;;;;5.30;2.80;;;;;;;19.34;66.30;99192.95;107184;1256;59509;-40
2023/07/22 05:47:45;;;;;;;3.40;2.60;;;;;;;19.34;67.02;99193.42;107322;1256;71834;-40
2023/07/22 05:50:13;;;;;;;3.90;2.50;;;;;;;19.35;67.35;99190.73;107280;1256;67673;-40
2023/07/22 05:52:40;;;;;;;2.70;2.40;;;;;;;19.39;67.63;99192.30;107285;1260;72698;-40
2023/07/22 05:55:08;;;;;;;3.90;2.70;;;;;;;19.41;67.85;99191.46;107246;1255;60105;-40
2023/07/22 05:57:36;;;;;;;5.00;2.60;;;;;;;19.40;68.09;99193.69;107261;1257;60179;-39
2023/07/22 06:00:05;;;;;;;3.10;2.60;;;;;;;19.38;68.33;99199.45;107280;1256;72844;-40
2023/07/22 06:02:42;;;;;;;6.30;2.20;;;;;;;19.34;68.81;99204.48;107287;1257;67736;-38
2023/07/22 06:05:09;;;;;;;4.80;2.60;;;;;;;19.33;69.04;99208.36;107225;1257;72724;-38
2023/07/22 06:07:37;;;;;;;3.30;2.40;;;;;;;19.34;68.94;99206.61;107225;1256;60993;-38
2023/07/22 06:10:08;;;;;;;4.90;2.70;;;;;;;19.31;68.95;99207.77;107240;1256;60016;-39
2023/07/22 06:12:35;;;;;;;3.20;2.30;;;;;;;19.26;69.00;99207.02;107288;1256;71359;-38
2023/07/22 06:15:08;;;;;;;4.90;2.50;;;;;;;19.20;69.40;99205.09;107207;1255;68026;-39
2023/07/22 06:17:35;;;;;;;2.90;2.40;;;;;;;19.10;70.00;99208.95;107280;1260;72593;-39
2023/07/22 06:20:04;;;;;;;3.00;2.50;;;;;;;19.05;70.35;99210.54;107175;1257;62036;-38
2023/07/22 06:22:32;;;;;;;4.60;2.60;;;;;;;19.04;70.89;99214.77;107321;1254;59737;-40
2023/07/22 06:24:59;;;;;;;3.70;2.50;;;;;;;18.99;70.95;99215.50;107170;1260;73216;-40
2023/07/22 06:27:27;;;;;;;5.30;2.60;;;;;;;18.85;71.28;99216.92;107239;1256;67913;-40
2023/07/22 06:29:55;;;;;;;6.10;2.90;;;;;;;18.74;71.92;99217.42;107198;1256;72718;-39
2023/07/22 06:32:29;;;;;;;4.30;2.60;;;;;;;18.69;72.41;99220.73;107315;1256;61790;-39
2023/07/22 06:35:09;;;;;;;4.20;2.50;;;;;;;18.66;72.58;99218.56;107053;1256;60630;-41
2023/07/22 06:37:38;;;;;;;4.60;3.00;;;;;;;18.63;73.12;99219.32;107146;1257;73227;-40
2023/07/22 06:40:06;;;;;;;5.10;3.10;;;;;;;18.55;73.30;99219.29;107233;1256;66295;-40
2023/07/22 06:42:34;;;;;;;3.90;2.60;;;;;;;18.50;73.99;99216.35;107078;1256;72654;-40
2023/07/22 06:45:01;;;;;;;3.60;2.60;;;;;;;18.54;74.33;99217.09;107048;1261;61751;-40
2023/07/22 06:47:29;;;;;;;4.50;2.70;;;;;;;18.59;74.20;99218.66;107244;1257;60049;-40
2023/07/22 06:49:57;;;;;;;4.40;2.70;;;;;;;18.60;74.53;99217.71;107194;1257;73052;-40
2023/07/22 06:52:26;;;;;;;4.70;3.00;;;;;;;18.63;74.89;99220.40;107210;1261;67657;-39
2023/07/22 06:54:54;;;;;;;3.50;2.90;;;;;;;18.64;75.01;99216.40;107069;1259;71446;-39
2023/07/22 06:57:22;;;;;;;4.40;2.80;;;;;;;18.70;74.80;99221.42;107189;1256;61836;-38
2023/07/22 06:59:50;;;;;;;3.50;2.90;;;;;;;18.76;74.85;99220.13;107131;1256;60141;-38
2023/07/22 07:02:18;;;;;;;3.40;2.60;;;;;;;18.81;75.01;99220.44;107780;1257;71830;-38
2023/07/22 07:04:46;;;;;;;5.10;3.10;;;;;;;18.85;75.10;99217.63;107202;1256;66601;-38
2023/07/22 07:07:13;;;;;;;4.00;2.60;;;;;;;18.88;75.13;99217.35;107163;1257;71388;-38
2023/07/22 07:09:41;;;;;;;5.40;2.60;;;;;;;18.92;75.06;99216.63;107074;1256;60562;-38
2023/07/22 07:12:09;;;;;;;4.60;3.20;;;;;;;19.00;75.11;99215.81;107179;1257;59737;-38
2023/07/22 07:14:36;;;;;;;5.30;3.20;;;;;;;19.05;75.10;99208.94;107164;1260;73086;-38
2023/07/22 07:17:05;;;;;;;4.20;2.70;;;;;;;19.06;74.89;99210.10;107191;1256;66637;-38
2023/07/22 07:19:32;;;;;;;4.40;3.20;;;;;;;19.05;74.92;99208.24;107307;1256;72113;-38
2023/07/22 07:22:00;;;;;;;6.40;2.90;;;;;;;19.08;74.75;99207.96;107214;1258;60481;-38
2023/07/22 07:24:28;;;;;;;4.30;3.10;;;;;;;19.11;74.96;99204.61;107315;1256;59589;-38
2023/07/22 07:26:56;;;;;;;3.60;3.10;;;;;;;19.14;75.08;99200.95;107302;1260;71798;-38
2023/07/22 07:29:23;;;;;;;5.40;3.20;;;;;;;19.15;75.18;99196.53;107236;1257;66766;-38
2023/07/22 07:32:11;;;;;;;4.50;3.20;;;;;;;19.16;75.18;99192.05;107168;1259;70969;-38
2023/07/22 07:34:38;;;;;;;3.90;3.20;;;;;;;19.19;75.22;99186.27;107096;1256;61718;-38
2023/07/22 07:37:07;;;;;;;5.30;3.80;;;;;;;19.23;75.16;99181.30;107220;1256;60082;-38
2023/07/22 07:39:37;;;;;;;3.90;3.30;;;;;;;19.28;75.26;99178.63;107239;1260;73069;-38
2023/07/22 07:42:06;;;;;;;4.70;3.40;;;;;;;19.29;75.25;99176.55;107208;1256;67773;-38
2023/07/22 07:44:33;;;;;;;4.60;3.60;;;;;;;19.34;75.31;99173.55;107209;1260;71346;-38
2023/07/22 07:47:01;;;;;;;4.10;3.10;;;;;;;19.37;75.08;99164.22;107218;1258;61724;-38
2023/07/22 07:49:28;;;;;;;4.80;3.20;;;;;;;19.41;75.23;99161.23;107225;1256;60179;-38
2023/07/22 07:51:56;;;;;;;4.40;3.00;;;;;;;19.42;74.81;99157.60;107224;1256;72660;-38
2023/07/22 07:54:23;;;;;;;5.30;3.50;;;;;;;19.40;75.07;99154.98;107213;1256;67571;-38
2023/07/22 07:56:52;;;;;;;5.10;3.00;;;;;;;19.38;74.97;99159.02;107194;1257;72976;-38
2023/07/22 07:59:20;;;;;;;4.20;3.10;;;;;;;19.38;74.89;99158.95;107161;1260;62118;-38
2023/07/22 08:01:47;;;;;;;5.40;3.30;;;;;;;19.40;75.05;99163.61;107204;1256;60174;-38
2023/07/22 08:04:17;;;;;;;5.00;3.40;;;;;;;19.41;75.20;99158.72;107190;1256;73837;-38
2023/07/22 08:06:45;;;;;;;6.30;3.30;;;;;;;19.39;75.02;99149.27;107280;1257;67565;-38
2023/07/22 08:09:18;;;;;;;4.20;3.20;;;;;;;19.32;75.02;99147.98;107205;1257;72680;-38
2023/07/22 08:11:46;;;;;;;4.70;3.20;;;;;;;19.29;74.97;99138.00;107217;1257;61829;-38
2023/07/22 08:14:14;;;;;;;5.40;3.30;;;;;;;19.27;75.13;99136.08;107244;1256;60012;-37
2023/07/22 08:16:42;;;;;;;4.10;3.40;;;;;;;19.23;75.34;99133.07;107219;1257;73924;-37
2023/07/22 08:19:10;;;;;;;5.10;3.60;;;;;;;19.19;75.52;99131.20;107191;1257;67567;-37
2023/07/22 08:21:38;;;;;;;5.90;3.50;;;;;;;19.13;75.57;99119.22;106996;1256;72702;-37
2023/07/22 08:24:06;;;;;;;4.80;3.20;;;;;;;19.12;75.89;99112.66;107205;1260;59875;-38
2023/07/22 08:26:33;;;;;;;4.00;3.30;;;;;;;19.13;75.82;99104.86;107251;1257;60290;-38
2023/07/22 08:29:01;;;;;;;5.20;3.10;;;;;;;19.13;75.97;99103.28;107211;1256;73995;-38
2023/07/22 08:31:28;;;;;;;5.20;3.50;;;;;;;19.12;76.11;99100.66;107286;1255;66331;-38
2023/07/22 08:33:56;;;;;;;5.30;3.50;;;;;;;19.05;76.04;99092.38;107154;1256;72740;-38
2023/07/22 08:36:24;;;;;;;4.30;3.20;;;;;;;19.02;76.15;99083.50;107234;1255;60762;-38
2023/07/22 08:38:53;;;;;;;4.90;3.50;;;;;;;18.99;76.15;99080.55;107266;1255;60352;-38
2023/07/22 08:41:22;;;;;;;5.10;3.60;;;;;;;18.94;76.37;99078.86;107265;1255;73880;-38
2023/07/22 08:43:50;;;;;;;7.40;3.40;;;;;;;18.85;76.51;99082.26;107253;1255;66340;-38
2023/07/22 08:46:19;;;;;;;4.40;2.80;;;;;;;18.76;77.07;99078.50;107237;1256;72710;-38
2023/07/22 08:48:48;;;;;;;3.30;2.90;;;;;;;18.75;77.39;99070.98;107286;1257;61685;-38
2023/07/22 08:51:29;;;;;;;5.10;3.00;;;;;;;18.79;77.25;99060.54;107198;1256;60287;-39
2023/07/22 08:53:57;;;;;;;5.30;2.90;;;;;;;18.77;77.24;99057.77;107205;1255;71642;-39
2023/07/22 08:56:50;;;;;;;4.10;2.90;;;;;;;18.73;77.39;99055.65;107203;1255;67713;-39
2023/07/22 08:59:18;;;;;;;3.20;2.30;;;;;;;18.66;77.44;99054.74;107197;1256;71763;-38
2023/07/22 09:01:47;;;;;;;4.10;2.80;;;;;;;18.64;77.40;99057.98;107081;1257;60730;-38
2023/07/22 09:04:15;;;;;;;3.10;2.50;;;;;;;18.63;77.49;99058.23;107094;1256;60422;-38
2023/07/22 09:06:43;;;;;;;2.50;2.30;;;;;;;18.59;77.55;99056.37;107104;1256;72621;-38
2023/07/22 09:09:11;;;;;;;4.40;2.20;;;;;;;18.53;77.79;99062.52;107081;1256;67089;-38
2023/07/22 09:11:39;;;;;;;3.80;2.20;;;;;;;18.50;78.12;99061.83;107053;1256;74673;-38
2023/07/22 09:14:06;;;;;;;2.50;2.30;;;;;;;18.54;78.13;99062.34;107185;1256;60606;-39
2023/07/22 09:16:35;;;;;;;2.20;2.00;;;;;;;18.58;77.92;99057.71;107313;1256;60267;-38
2023/07/22 09:19:04;;;;;;;4.80;2.20;;;;;;;18.56;77.90;99054.95;107082;1256;72579;-38
2023/07/22 09:21:35;;;;;;;2.70;2.10;;;;;;;18.51;77.91;99050.28;107196;1256;67714;-38
2023/07/22 09:24:21;;;;;;;2.80;2.10;;;;;;;18.47;77.75;99048.88;107015;1256;72697;-38
2023/07/22 09:26:49;;;;;;;2.50;1.70;;;;;;;18.44;77.91;99054.04;107274;1257;61685;-38
2023/07/22 09:29:17;;;;;;;4.90;2.30;;;;;;;18.42;77.94;99053.91;107198;1261;59232;-39
2023/07/22 09:31:52;;;;;;;3.20;2.20;;;;;;;18.39;78.21;99050.98;107250;1255;73830;-39
2023/07/22 09:34:20;;;;;;;3.70;2.20;;;;;;;18.36;78.13;99043.98;107282;1255;66935;-39
2023/07/22 09:36:52;;;;;;;3.10;2.10;;;;;;;18.36;78.30;99036.68;107244;1256;72679;-39
2023/07/22 09:39:19;;;;;;;3.30;2.40;;;;;;;18.39;78.23;99035.05;107109;1256;59684;-39
2023/07/22 09:41:47;;;;;;;2.90;2.40;;;;;;;18.39;78.16;99032.88;107236;1254;60416;-39
2023/07/22 09:44:15;;;;;;;2.90;2.10;;;;;;;18.38;78.35;99036.33;107177;1254;73936;-39
2023/07/22 09:46:47;;;;;;;3.90;1.90;;;;;;;18.38;78.44;99031.78;107375;1254;66285;-39
2023/07/22 09:49:16;;;;;;;2.10;1.80;;;;;;;18.39;78.29;99027.29;107324;1254;72818;-39
2023/07/22 09:51:44;;;;;;;3.60;2.10;;;;;;;18.38;78.25;99027.63;107465;1254;60338;-39
2023/07/22 09:54:31;;;;;;;3.40;2.10;;;;;;;18.35;78.60;99026.02;107395;1256;59999;-39
2023/07/22 09:56:59;;;;;;;3.50;1.90;;;;;;;18.29;78.71;99030.63;107325;1254;72579;-40
2023/07/22 09:59:28;;;;;;;2.80;1.80;;;;;;;18.27;78.88;99028.45;107421;1254;68055;-40
2023/07/22 10:01:58;;;;;;;4.20;2.10;;;;;;;18.27;78.96;99023.27;107431;1255;71403;-39
2023/07/22 10:04:28;;;;;;;2.80;2.30;;;;;;;18.32;79.10;99027.04;107407;1254;60467;-40
2023/07/22 10:06:56;;;;;;;2.80;1.90;;;;;;;18.32;78.96;99025.38;107172;1254;61139;-40
2023/07/22 10:09:23;;;;;;;3.60;1.60;;;;;;;18.31;79.04;99024.92;107139;1256;72555;-39
2023/07/22 10:11:51;;;;;;;3.20;1.70;;;;;;;18.33;78.95;99028.81;107233;1260;68159;-39
2023/07/22 10:14:18;;;;;;;2.30;1.70;;;;;;;18.36;79.00;99026.73;107078;1259;71620;-39
2023/07/22 10:16:46;;;;;;;3.90;2.00;;;;;;;18.40;79.08;99023.59;107177;1256;60623;-39
2023/07/22 10:19:13;;;;;;;1.90;1.80;;;;;;;18.41;78.76;99019.58;107141;1255;60446;-39
2023/07/22 10:21:41;;;;;;;2.40;1.80;;;;;;;18.41;78.66;99019.25;107054;1258;73849;-39
2023/07/22 10:24:08;;;;;;;2.30;1.90;;;;;;;18.47;78.60;99020.80;107174;1256;67614;-38
2023/07/22 10:26:36;;;;;;;3.30;1.90;;;;;;;18.49;78.36;99019.11;107155;1256;71425;-39
2023/07/22 10:29:07;;;;;;;4.00;2.00;;;;;;;18.47;78.25;99019.39;107248;1256;60606;-39
2023/07/22 10:31:35;;;;;;;2.30;1.80;;;;;;;18.45;78.49;99016.84;107255;1256;60117;-39
2023/07/22 10:34:03;;;;;;;3.20;1.80;;;;;;;18.45;78.31;99015.03;107295;1256;73887;-39
2023/07/22 10:36:31;;;;;;;2.60;2.00;;;;;;;18.48;78.45;99020.53;107181;1256;67566;-39
2023/07/22 10:38:58;;;;;;;4.80;2.10;;;;;;;18.49;78.57;99018.49;107193;1256;72512;-39
2023/07/22 10:41:32;;;;;;;3.70;2.00;;;;;;;18.47;78.59;99017.73;107223;1256;60128;-39
2023/07/22 10:44:00;;;;;;;3.20;2.00;;;;;;;18.45;78.75;99023.09;107239;1255;60167;-39
2023/07/22 10:46:38;;;;;;;4.00;1.60;;;;;;;18.47;78.65;99021.98;107209;1256;73757;-39
2023/07/22 10:49:13;;;;;;;2.20;1.80;;;;;;;18.52;78.52;99013.90;107188;1256;66685;-39
2023/07/22 10:51:41;;;;;;;4.10;2.10;;;;;;;18.53;78.37;99012.38;107154;1256;72660;-39
2023/07/22 10:54:13;;;;;;;2.80;1.90;;;;;;;18.49;78.56;99014.80;107257;1260;60533;-40
2023/07/22 10:56:45;;;;;;;2.10;1.60;;;;;;;18.46;78.62;99013.83;107092;1256;60512;-40
2023/07/22 10:59:13;;;;;;;4.10;1.70;;;;;;;18.49;78.85;99009.22;107414;1254;72642;-40
2023/07/22 11:01:43;;;;;;;3.70;1.80;;;;;;;18.53;78.99;99011.05;106982;1257;66924;-40
2023/07/22 11:04:17;;;;;;;3.70;2.00;;;;;;;18.54;78.90;99012.14;107287;1256;72704;-38
2023/07/22 11:06:48;;;;;;;2.10;1.70;;;;;;;18.53;79.07;99005.09;107339;1259;61738;-39
2023/07/22 11:09:34;;;;;;;2.60;1.50;;;;;;;18.59;79.15;99004.36;107231;1256;60434;-39
2023/07/22 11:12:10;;;;;;;4.10;1.50;;;;;;;18.64;78.87;99005.82;107122;1257;73823;-39
2023/07/22 11:14:39;;;;;;;2.30;1.60;;;;;;;18.64;78.87;99005.27;107340;1256;67592;-39
2023/07/22 11:17:08;;;;;;;3.70;1.50;;;;;;;18.64;78.75;99001.45;107187;1256;72735;-39
2023/07/22 11:19:36;;;;;;;1.80;1.40;;;;;;;18.64;78.79;98998.94;107169;1256;60533;-39
2023/07/22 11:22:04;;;;;;;1.80;1.60;;;;;;;18.65;78.61;98997.58;107156;1256;60499;-39
2023/07/22 11:24:35;;;;;;;1.70;1.50;;;;;;;18.72;78.71;98994.63;107320;1256;73101;-39
2023/07/22 11:27:05;;;;;;;1.80;1.50;;;;;;;18.75;78.51;98998.33;107299;1256;67638;-39
2023/07/22 11:29:32;;;;;;;2.20;1.70;;;;;;;18.75;78.64;98996.91;107317;1256;72638;-39
2023/07/22 11:32:00;;;;;;;2.10;1.50;;;;;;;18.75;78.46;98991.19;107200;1256;61694;-39
2023/07/22 11:34:27;;;;;;;1.80;1.40;;;;;;;18.78;78.65;98987.60;107227;1254;60419;-39